Time;durP1;ratioP1;P1;durP2;ratioP2;P2;SDS_P1;SDS_P2;PMS_P1;PMS_P2;Temp;Humidity;BMP_temperature;BMP_pressure;BME280_temperature;BME280_humidity;BME280_pressure;Samples;Min_cycle;Max_cycle;Signal;HPM_P1;HPM_P2
2023/07/29 00:01:10;;;;;;;3.40;2.83;;;;;;;22.57;60.09;98965.56;4991531;28;20521;-76
2023/07/29 00:03:36;;;;;;;3.13;2.83;;;;;;;22.57;60.08;98972.81;4991511;28;20053;-76
2023/07/29 00:06:03;;;;;;;5.13;2.67;;;;;;;22.57;60.40;98975.50;4991198;28;20494;-76
2023/07/29 00:08:30;;;;;;;2.95;2.75;;;;;;;22.56;60.57;98974.66;4991202;28;20066;-76
2023/07/29 00:10:56;;;;;;;4.72;3.13;;;;;;;22.57;60.72;98975.50;4991318;28;20054;-77
2023/07/29 00:13:23;;;;;;;3.28;2.97;;;;;;;22.57;60.95;98970.13;4974211;28;20054;-76
2023/07/29 00:15:50;;;;;;;3.83;3.42;;;;;;;22.57;61.04;98964.75;4973812;28;20050;-76
2023/07/29 00:18:16;;;;;;;3.72;3.20;;;;;;;22.57;60.98;98959.41;4973875;28;20141;-76
2023/07/29 00:20:43;;;;;;;3.42;3.05;;;;;;;22.57;61.07;98962.91;4991438;28;20046;-76
2023/07/29 00:23:11;;;;;;;3.22;2.92;;;;;;;22.57;61.51;98964.75;4991258;28;20054;-76
2023/07/29 00:25:37;;;;;;;3.78;3.47;;;;;;;22.58;61.11;98966.41;4990635;28;20483;-76
2023/07/29 00:28:04;;;;;;;6.40;2.95;;;;;;;22.58;61.28;98961.88;4990960;28;20622;-76
2023/07/29 00:30:30;;;;;;;4.80;3.05;;;;;;;22.60;61.35;98969.72;4991343;28;20450;-75
2023/07/29 00:32:57;;;;;;;5.10;3.80;;;;;;;22.60;61.72;98965.22;4991074;28;20510;-76
2023/07/29 00:35:23;;;;;;;5.57;4.00;;;;;;;22.60;61.72;98961.69;4990782;28;20038;-75
2023/07/29 00:37:50;;;;;;;6.53;3.70;;;;;;;22.60;61.87;98959.00;4991007;28;20050;-76
2023/07/29 00:40:21;;;;;;;5.95;3.88;;;;;;;22.58;63.10;98959.19;4973709;28;20847;-75
2023/07/29 00:42:50;;;;;;;5.85;3.45;;;;;;;22.61;62.34;98955.34;4973944;28;20050;-76
2023/07/29 00:45:16;;;;;;;4.30;3.90;;;;;;;22.62;62.34;98946.25;4973340;28;20058;-75
2023/07/29 00:47:43;;;;;;;5.55;3.60;;;;;;;22.62;62.34;98938.22;4990915;28;20061;-76
2023/07/29 00:50:12;;;;;;;4.70;3.75;;;;;;;22.62;62.48;98952.44;4991501;28;20423;-76
2023/07/29 00:52:39;;;;;;;3.95;3.50;;;;;;;22.63;62.32;98947.91;4991125;28;20475;-75
2023/07/29 00:55:06;;;;;;;5.97;3.85;;;;;;;22.62;62.11;98951.63;4993011;28;20050;-76
2023/07/29 00:57:34;;;;;;;3.65;3.28;;;;;;;22.60;62.40;98948.28;4994635;28;20054;-75
2023/07/29 01:00:02;;;;;;;4.72;3.92;;;;;;;22.57;62.38;98938.75;4995051;28;20054;-76
2023/07/29 01:02:32;;;;;;;5.15;3.72;;;;;;;22.55;62.31;98931.91;4994718;28;20050;-76
2023/07/29 01:05:00;;;;;;;6.75;3.85;;;;;;;22.52;62.51;98935.78;4976907;28;20054;-75
2023/07/29 01:07:40;;;;;;;4.55;4.15;;;;;;;22.44;63.30;98934.03;4994599;28;20051;-76
2023/07/29 01:10:26;;;;;;;3.80;3.35;;;;;;;22.41;63.31;98937.06;4976923;28;20105;-76
2023/07/29 01:13:12;;;;;;;4.63;3.90;;;;;;;22.37;63.42;98936.63;4994697;28;20046;-76
2023/07/29 01:15:58;;;;;;;5.95;3.78;;;;;;;22.35;63.69;98935.97;4994462;28;20046;-75
2023/07/29 01:18:29;;;;;;;4.95;3.92;;;;;;;22.36;63.45;98931.44;4994505;28;20060;-76
2023/07/29 01:21:07;;;;;;;6.05;3.80;;;;;;;22.31;63.62;98931.97;4993994;28;20042;-75
2023/07/29 01:23:35;;;;;;;4.43;3.80;;;;;;;22.32;63.12;98935.50;4978508;28;20042;-76
2023/07/29 01:26:03;;;;;;;5.93;3.97;;;;;;;22.31;63.48;98940.03;4994423;28;20383;-77
2023/07/29 01:28:30;;;;;;;4.72;3.63;;;;;;;22.29;63.41;98930.50;4994172;28;20057;-76
2023/07/29 01:31:13;;;;;;;4.78;3.78;;;;;;;22.25;64.25;98932.72;4993840;28;20478;-76
2023/07/29 01:33:47;;;;;;;6.97;3.63;;;;;;;22.28;63.96;98931.53;4976992;28;20058;-75
2023/07/29 01:36:23;;;;;;;6.07;3.30;;;;;;;22.25;64.12;98930.88;4993835;28;20133;-76
2023/07/29 01:38:52;;;;;;;5.35;3.50;;;;;;;22.25;63.50;98922.00;4993998;28;20462;-76
2023/07/29 01:41:20;;;;;;;4.15;3.47;;;;;;;22.24;63.44;98913.13;4993555;28;20058;-75
2023/07/29 01:43:47;;;;;;;3.22;2.92;;;;;;;22.21;63.62;98905.44;4994124;28;20082;-75
2023/07/29 01:46:14;;;;;;;3.90;3.50;;;;;;;22.19;63.58;98912.00;4993662;28;20066;-76
2023/07/29 01:48:42;;;;;;;4.18;3.25;;;;;;;22.17;63.96;98893.47;4993861;28;20054;-76
2023/07/29 01:51:12;;;;;;;4.20;3.08;;;;;;;22.13;64.93;98900.19;4993334;28;20118;-75
2023/07/29 01:53:38;;;;;;;4.15;3.15;;;;;;;22.16;64.37;98904.34;4976669;28;20046;-76
2023/07/29 01:56:05;;;;;;;6.43;2.95;;;;;;;22.14;64.04;98907.22;4993392;28;20051;-76
2023/07/29 01:58:32;;;;;;;3.25;2.95;;;;;;;22.12;64.18;98906.56;4976178;28;20112;-76
2023/07/29 02:00:59;;;;;;;3.53;3.20;;;;;;;22.11;64.37;98918.31;4993342;28;20052;-76
2023/07/29 02:03:25;;;;;;;5.63;3.63;;;;;;;22.08;64.48;98911.47;4993817;28;20071;-76
2023/07/29 02:05:52;;;;;;;4.50;3.63;;;;;;;22.08;64.49;98915.97;5019239;23;20476;-78
2023/07/29 02:08:18;;;;;;;4.28;3.80;;;;;;;22.07;64.68;98917.00;4993936;28;20402;-79
2023/07/29 02:10:45;;;;;;;3.83;3.30;;;;;;;22.06;64.96;98920.69;4994221;28;20138;-78
2023/07/29 02:13:12;;;;;;;4.35;3.92;;;;;;;22.07;65.17;98917.00;4976772;28;20057;-80
2023/07/29 02:15:38;;;;;;;5.55;4.07;;;;;;;22.07;65.40;98915.16;4993086;28;20461;-78
2023/07/29 02:18:06;;;;;;;6.53;4.15;;;;;;;22.07;65.28;98912.50;4993305;28;20054;-79
2023/07/29 02:20:33;;;;;;;4.00;3.70;;;;;;;22.08;65.59;98914.16;4993246;28;20414;-78
2023/07/29 02:23:00;;;;;;;6.18;4.13;;;;;;;22.09;65.51;98905.09;4993302;28;20483;-79
2023/07/29 02:25:26;;;;;;;5.13;4.63;;;;;;;22.12;65.58;98903.88;4993113;28;20050;-79
2023/07/29 02:27:53;;;;;;;4.93;4.40;;;;;;;22.12;65.59;98898.53;4993153;28;20077;-79
2023/07/29 02:30:21;;;;;;;4.90;4.45;;;;;;;22.12;65.63;98894.00;4975630;28;20516;-79
2023/07/29 02:32:47;;;;;;;4.72;4.32;;;;;;;22.15;65.60;98898.16;4992875;28;20051;-79
2023/07/29 02:35:14;;;;;;;5.53;5.03;;;;;;;22.16;65.67;98904.34;4993014;28;20097;-79
2023/07/29 02:37:40;;;;;;;7.20;5.68;;;;;;;22.16;65.93;98893.63;4992954;28;20046;-79
2023/07/29 02:40:07;;;;;;;7.35;4.90;;;;;;;22.16;65.82;98893.63;4976002;28;20050;-78
2023/07/29 02:42:34;;;;;;;5.60;4.30;;;;;;;22.19;65.75;98877.16;4993081;28;20418;-78
2023/07/29 02:45:00;;;;;;;4.90;4.38;;;;;;;22.19;65.93;98867.28;4992726;28;20046;-79
2023/07/29 02:47:27;;;;;;;5.70;5.10;;;;;;;22.20;65.75;98868.13;4992594;28;20054;-79
2023/07/29 02:49:53;;;;;;;5.65;5.15;;;;;;;22.22;65.56;98877.66;4975354;28;20395;-78
2023/07/29 02:52:20;;;;;;;6.78;5.20;;;;;;;22.23;65.92;98878.47;4992713;28;20085;-78
2023/07/29 02:54:47;;;;;;;7.72;5.45;;;;;;;22.24;65.55;98877.47;4992586;28;20745;-78
2023/07/29 02:57:13;;;;;;;8.25;5.20;;;;;;;22.24;65.84;98880.97;4975143;28;20141;-79
2023/07/29 02:59:40;;;;;;;7.38;6.05;;;;;;;22.24;65.67;98880.97;4975367;28;20157;-78
2023/07/29 03:02:06;;;;;;;7.95;6.28;;;;;;;22.24;65.80;98877.47;4992440;28;20066;-79
2023/07/29 03:04:33;;;;;;;7.70;5.93;;;;;;;22.24;65.72;98883.63;4992645;28;20050;-78
2023/07/29 03:07:00;;;;;;;6.78;6.18;;;;;;;22.23;65.65;98881.97;4992415;28;20050;-79
2023/07/29 03:09:26;;;;;;;6.93;6.10;;;;;;;22.23;65.90;98884.66;4992433;28;20141;-79
2023/07/29 03:11:54;;;;;;;7.22;6.60;;;;;;;22.21;65.83;98878.63;4992319;28;20057;-78
2023/07/29 03:14:21;;;;;;;8.10;7.30;;;;;;;22.21;65.63;98878.63;4992325;28;20054;-79
2023/07/29 03:16:47;;;;;;;6.80;6.22;;;;;;;22.20;65.85;98878.84;4991423;28;20100;-78
2023/07/29 03:19:15;;;;;;;6.82;6.22;;;;;;;22.19;65.91;98882.53;4991864;28;20062;-79
2023/07/29 03:21:41;;;;;;;7.72;6.93;;;;;;;22.19;65.93;98885.22;4992352;28;20057;-79
2023/07/29 03:24:08;;;;;;;8.20;7.40;;;;;;;22.18;66.46;98889.75;4992154;28;20057;-78
2023/07/29 03:26:34;;;;;;;7.25;6.57;;;;;;;22.17;66.36;98887.25;4991715;28;20141;-78
2023/07/29 03:29:01;;;;;;;7.72;6.90;;;;;;;22.19;66.33;98882.53;4992010;28;20089;-78
2023/07/29 03:31:28;;;;;;;7.55;6.80;;;;;;;22.18;66.32;98897.78;4991801;28;20145;-79
2023/07/29 03:33:54;;;;;;;7.93;7.20;;;;;;;22.18;66.24;98889.75;4992149;28;20065;-79
2023/07/29 03:36:21;;;;;;;8.38;7.53;;;;;;;22.17;66.35;98895.28;4991766;28;20124;-79
2023/07/29 03:38:48;;;;;;;7.35;6.65;;;;;;;22.16;66.29;98897.13;4991781;28;20076;-78
2023/07/29 03:41:14;;;;;;;8.45;7.70;;;;;;;22.15;66.64;98898.16;4991814;28;20090;-79
2023/07/29 03:43:41;;;;;;;7.70;6.97;;;;;;;22.13;66.52;98892.97;4991639;28;20050;-78
2023/07/29 03:46:07;;;;;;;9.30;7.97;;;;;;;22.13;66.71;98897.53;4991610;28;20134;-78
2023/07/29 03:48:37;;;;;;;9.10;8.30;;;;;;;22.12;66.60;98901.19;4974975;28;20054;-79
2023/07/29 03:51:04;;;;;;;7.55;6.57;;;;;;;22.12;66.62;98898.53;4991725;28;20050;-79
2023/07/29 03:53:30;;;;;;;10.23;8.15;;;;;;;22.12;66.74;98896.69;4991579;28;20065;-78
2023/07/29 03:55:57;;;;;;;8.27;7.47;;;;;;;22.12;67.02;98893.16;4974250;28;20050;-79
2023/07/29 03:58:23;;;;;;;9.57;7.65;;;;;;;22.12;66.84;98896.69;4991149;28;20502;-78
2023/07/29 04:00:50;;;;;;;10.35;8.60;;;;;;;22.12;67.01;98893.16;4991538;28;20050;-78
2023/07/29 04:03:16;;;;;;;9.13;8.23;;;;;;;22.12;66.91;98877.91;4991611;28;20055;-79
2023/07/29 04:05:43;;;;;;;9.75;8.75;;;;;;;22.13;66.88;98878.75;4991234;28;20503;-79
2023/07/29 04:08:10;;;;;;;8.73;7.93;;;;;;;22.14;66.83;98875.06;4991395;28;20047;-78
2023/07/29 04:10:37;;;;;;;9.05;8.15;;;;;;;22.13;66.94;98874.22;4991284;28;20053;-79
2023/07/29 04:13:04;;;;;;;9.82;8.90;;;;;;;22.13;67.10;98862.69;4991095;28;20061;-78
2023/07/29 04:15:31;;;;;;;8.75;7.88;;;;;;;22.13;66.82;98868.84;4991101;28;20089;-79
2023/07/29 04:17:57;;;;;;;11.57;8.50;;;;;;;22.13;66.97;98866.19;4991277;28;20062;-79
2023/07/29 04:20:24;;;;;;;9.93;8.88;;;;;;;22.14;67.20;98858.97;4991307;28;20142;-78
2023/07/29 04:22:50;;;;;;;8.68;7.82;;;;;;;22.15;67.22;98860.63;4973967;28;20047;-78
2023/07/29 04:25:18;;;;;;;8.73;7.93;;;;;;;22.15;67.40;98860.63;4990868;28;20050;-79
2023/07/29 04:27:45;;;;;;;9.82;8.85;;;;;;;22.17;67.12;98860.47;4991000;28;20086;-78
2023/07/29 04:30:11;;;;;;;10.70;9.70;;;;;;;22.18;67.24;98856.75;4991029;28;20058;-79
2023/07/29 04:32:38;;;;;;;8.98;8.07;;;;;;;22.18;67.07;98852.22;4991373;28;20487;-78
2023/07/29 04:35:05;;;;;;;10.55;8.50;;;;;;;22.19;67.43;98856.56;4990901;28;20086;-79
2023/07/29 04:37:31;;;;;;;11.30;8.77;;;;;;;22.20;67.10;98847.50;4990918;28;20058;-79
2023/07/29 04:39:58;;;;;;;10.02;9.13;;;;;;;22.21;67.18;98841.13;4991068;28;20054;-79
2023/07/29 04:42:24;;;;;;;10.52;9.57;;;;;;;22.23;67.21;98855.19;4991135;28;20513;-79
2023/07/29 04:44:51;;;;;;;10.32;9.23;;;;;;;22.24;67.31;98856.03;4990981;28;20058;-78
2023/07/29 04:47:17;;;;;;;11.25;10.15;;;;;;;22.23;67.25;98855.19;4991138;28;20057;-78
2023/07/29 04:49:44;;;;;;;9.75;8.68;;;;;;;22.26;67.22;98868.22;4990892;28;20129;-79
2023/07/29 04:52:10;;;;;;;10.15;9.23;;;;;;;22.25;67.21;98860.34;4990827;28;20050;-78
2023/07/29 04:54:36;;;;;;;10.82;9.73;;;;;;;22.25;67.22;98861.16;4990821;28;20058;-79
2023/07/29 04:57:03;;;;;;;12.73;10.82;;;;;;;22.26;67.37;98864.69;4990832;28;20141;-78
2023/07/29 04:59:30;;;;;;;10.40;9.40;;;;;;;22.28;67.30;98864.50;4991049;28;20410;-78
2023/07/29 05:01:56;;;;;;;12.63;10.63;;;;;;;22.29;67.20;98867.00;4990897;28;20050;-78
2023/07/29 05:04:23;;;;;;;11.68;10.50;;;;;;;22.30;67.50;98870.50;4991197;28;20060;-79
2023/07/29 05:06:50;;;;;;;13.07;10.63;;;;;;;22.32;67.54;98863.13;4973195;28;20165;-79
2023/07/29 05:09:18;;;;;;;12.73;11.45;;;;;;;22.33;67.68;98865.63;4990717;28;20050;-79
2023/07/29 05:11:47;;;;;;;12.65;11.45;;;;;;;22.35;67.21;98860.09;4990881;28;20074;-79
2023/07/29 05:14:14;;;;;;;12.82;11.63;;;;;;;22.35;67.46;98855.53;4990619;28;20534;-79
2023/07/29 05:16:41;;;;;;;12.23;11.07;;;;;;;22.38;67.51;98857.00;4990473;28;20054;-79
2023/07/29 05:19:07;;;;;;;12.13;10.93;;;;;;;22.39;67.35;98853.31;4990821;28;20124;-78
2023/07/29 05:21:34;;;;;;;12.73;11.43;;;;;;;22.40;67.69;98854.97;4990773;28;20055;-79
2023/07/29 05:24:01;;;;;;;10.45;9.55;;;;;;;22.41;67.41;98859.31;4990969;28;20498;-79
2023/07/29 05:26:27;;;;;;;12.30;11.25;;;;;;;22.44;67.50;98868.84;4990387;28;20518;-78
2023/07/29 05:28:54;;;;;;;13.15;11.85;;;;;;;22.46;67.70;98873.00;4990603;28;20058;-79
2023/07/29 05:31:22;;;;;;;13.80;11.25;;;;;;;22.48;67.34;98870.13;4990446;28;20058;-79
2023/07/29 05:33:48;;;;;;;12.48;11.27;;;;;;;22.50;67.26;98868.91;4990609;28;20054;-80
2023/07/29 05:36:15;;;;;;;13.60;11.13;;;;;;;22.51;67.40;98870.56;4990600;28;20047;-81
2023/07/29 05:38:42;;;;;;;12.63;11.32;;;;;;;22.51;67.11;98873.25;4990804;28;20046;-80
2023/07/29 05:41:08;;;;;;;12.63;11.52;;;;;;;22.54;67.25;98876.59;4991245;28;20056;-80
2023/07/29 05:43:34;;;;;;;11.90;10.70;;;;;;;22.55;67.00;98879.13;4994251;28;20491;-78
2023/07/29 05:46:01;;;;;;;11.07;9.90;;;;;;;22.58;66.96;98877.91;4993820;28;20054;-79
2023/07/29 05:48:27;;;;;;;11.75;10.55;;;;;;;22.59;66.91;98875.06;4977022;28;20050;-79
2023/07/29 05:50:54;;;;;;;12.55;11.35;;;;;;;22.62;66.81;98879.22;4993676;28;20058;-79
2023/07/29 05:53:20;;;;;;;11.02;10.02;;;;;;;22.62;66.85;98877.34;4994056;28;20050;-79
2023/07/29 05:55:47;;;;;;;15.73;11.88;;;;;;;22.64;67.02;98875.31;4993510;28;20117;-78
2023/07/29 05:58:13;;;;;;;11.60;10.48;;;;;;;22.67;67.05;98867.91;4993820;28;20059;-79
2023/07/29 06:00:40;;;;;;;11.50;9.80;;;;;;;22.68;67.01;98859.66;4993826;28;20054;-78
2023/07/29 06:03:09;;;;;;;11.68;9.57;;;;;;;22.70;67.38;98859.47;4976461;28;20061;-79
2023/07/29 06:05:36;;;;;;;10.48;9.52;;;;;;;22.73;66.99;98857.25;4975973;28;20050;-79
2023/07/29 06:08:04;;;;;;;10.93;9.88;;;;;;;22.76;66.77;98867.59;4993738;28;20104;-79
2023/07/29 06:10:30;;;;;;;11.25;10.15;;;;;;;22.77;66.71;98855.84;4993338;28;20557;-78
2023/07/29 06:12:57;;;;;;;10.93;9.85;;;;;;;22.77;66.58;98853.16;4993751;28;20054;-79
2023/07/29 06:15:23;;;;;;;9.98;8.98;;;;;;;22.78;66.51;98862.03;4993325;28;20058;-79
2023/07/29 06:17:50;;;;;;;9.68;8.60;;;;;;;22.79;66.60;98855.66;4993165;28;20133;-79
2023/07/29 06:20:17;;;;;;;12.07;10.07;;;;;;;22.82;66.60;98857.13;4975858;28;20070;-78
2023/07/29 06:22:44;;;;;;;10.55;9.55;;;;;;;22.84;66.50;98861.28;4991911;28;20549;-79
2023/07/29 06:25:10;;;;;;;11.73;9.13;;;;;;;22.88;66.59;98861.75;4991946;28;20038;-77
2023/07/29 06:27:37;;;;;;;10.73;9.43;;;;;;;22.93;66.08;98874.56;4991833;28;20053;-79
2023/07/29 06:30:05;;;;;;;9.90;9.00;;;;;;;22.94;65.71;98877.06;4992022;28;20058;-79
2023/07/29 06:32:32;;;;;;;9.48;8.57;;;;;;;22.95;65.51;98888.66;4992723;28;20490;-79
2023/07/29 06:34:58;;;;;;;9.75;8.85;;;;;;;22.94;65.29;98895.84;4993333;28;20125;-80
2023/07/29 06:37:25;;;;;;;10.65;9.65;;;;;;;22.92;65.42;98892.53;4992979;28;20906;-80
2023/07/29 06:39:51;;;;;;;10.55;9.55;;;;;;;22.89;65.41;98893.75;4993309;28;20061;-79
2023/07/29 06:42:18;;;;;;;10.70;9.60;;;;;;;22.88;65.58;98893.94;4992995;28;20057;-80
2023/07/29 06:44:45;;;;;;;10.32;9.32;;;;;;;22.87;65.78;98889.56;4992910;28;20512;-79
2023/07/29 06:47:12;;;;;;;10.80;9.75;;;;;;;22.85;65.59;98888.94;4992408;28;20050;-79
2023/07/29 06:49:38;;;;;;;9.90;8.93;;;;;;;22.84;65.34;98898.03;4975308;28;20133;-79
2023/07/29 06:52:05;;;;;;;10.20;8.40;;;;;;;22.82;65.50;98895.53;4992363;28;20054;-79
2023/07/29 06:54:32;;;;;;;10.60;8.30;;;;;;;22.79;65.40;98890.53;4993004;28;20058;-79
2023/07/29 06:56:59;;;;;;;8.63;7.82;;;;;;;22.77;65.06;98893.41;4992568;28;20462;-79
2023/07/29 06:59:25;;;;;;;9.20;7.90;;;;;;;22.74;65.36;98907.22;4992997;28;20047;-80
2023/07/29 07:01:52;;;;;;;9.32;8.00;;;;;;;22.74;65.14;98906.38;4992657;28;20108;-78
2023/07/29 07:04:19;;;;;;;9.88;8.00;;;;;;;22.73;65.05;98905.53;4992794;28;20092;-79
2023/07/29 07:06:45;;;;;;;8.65;7.85;;;;;;;22.74;65.20;98903.69;4990920;28;20051;-78
2023/07/29 07:09:12;;;;;;;8.50;7.13;;;;;;;22.76;65.41;98915.03;4990929;28;20436;-78
2023/07/29 07:11:38;;;;;;;8.73;7.57;;;;;;;22.80;65.20;98910.16;4991073;28;20050;-78
2023/07/29 07:14:05;;;;;;;7.50;6.80;;;;;;;22.85;65.44;98913.09;4990931;28;20060;-78
2023/07/29 07:16:31;;;;;;;8.68;7.15;;;;;;;22.89;65.45;98911.69;4990562;28;20137;-78
2023/07/29 07:18:58;;;;;;;7.03;6.32;;;;;;;22.94;65.18;98909.28;4991063;28;20054;-78
2023/07/29 07:21:24;;;;;;;7.65;6.63;;;;;;;23.00;64.82;98905.84;4991690;28;20050;-78
2023/07/29 07:23:51;;;;;;;7.53;6.40;;;;;;;23.06;64.63;98914.16;4992403;28;20492;-79
2023/07/29 07:26:17;;;;;;;6.53;5.50;;;;;;;23.12;64.00;98916.06;4992261;28;20197;-79
2023/07/29 07:28:44;;;;;;;6.90;5.78;;;;;;;23.14;63.07;98920.22;4991717;28;20082;-79
2023/07/29 07:31:11;;;;;;;7.55;5.00;;;;;;;23.14;62.35;98932.84;4992311;28;20105;-79
2023/07/29 07:33:37;;;;;;;5.32;4.53;;;;;;;23.11;61.99;98928.69;4991889;28;20042;-78
2023/07/29 07:36:04;;;;;;;4.05;3.65;;;;;;;23.08;61.41;98930.88;4974890;28;20058;-78
2023/07/29 07:38:30;;;;;;;4.78;3.78;;;;;;;23.03;61.97;98926.91;4992021;28;20465;-78
2023/07/29 07:40:57;;;;;;;4.93;4.22;;;;;;;23.01;61.45;98928.97;4992106;28;20050;-78
2023/07/29 07:43:24;;;;;;;3.65;3.35;;;;;;;22.99;61.29;98936.38;4992117;28;20120;-80
2023/07/29 07:45:51;;;;;;;3.50;3.20;;;;;;;22.97;61.16;98916.97;4974418;28;20144;-78
2023/07/29 07:48:19;;;;;;;2.95;2.75;;;;;;;22.97;61.66;98921.47;4974701;28;20050;-78
2023/07/29 07:50:46;;;;;;;2.80;2.35;;;;;;;22.98;61.84;98918.63;4992020;28;20058;-79
2023/07/29 07:53:13;;;;;;;2.60;2.13;;;;;;;23.00;61.32;98915.75;4991819;28;20061;-80
2023/07/29 07:55:39;;;;;;;3.88;2.13;;;;;;;23.02;60.87;98919.91;4991804;28;20392;-79
2023/07/29 07:58:06;;;;;;;3.33;1.90;;;;;;;23.07;60.68;98919.34;4991492;28;20061;-80
2023/07/29 08:00:32;;;;;;;1.73;1.40;;;;;;;23.11;59.55;98919.78;4991646;28;20054;-79
2023/07/29 08:02:59;;;;;;;1.77;1.40;;;;;;;23.12;59.68;98914.22;4974176;28;20087;-81
2023/07/29 08:08:28;;;;;;;1.97;1.30;;;;;;;23.18;58.63;98920.69;5005320;28;20057;-75
2023/07/29 08:10:56;;;;;;;1.30;1.10;;;;;;;23.17;58.21;98916.31;5011241;28;20050;-74
2023/07/29 08:13:24;;;;;;;1.60;1.02;;;;;;;23.15;57.97;98918.38;5010970;28;20135;-75
2023/07/29 08:15:52;;;;;;;1.05;1.00;;;;;;;23.12;58.36;98927.66;5011080;28;20104;-75
2023/07/29 08:18:19;;;;;;;2.70;1.30;;;;;;;23.11;58.09;98917.94;5011139;28;20572;-75
2023/07/29 08:20:59;;;;;;;2.17;1.33;;;;;;;23.05;57.92;98924.06;5011176;28;20329;-74
2023/07/29 08:23:26;;;;;;;1.10;1.00;;;;;;;23.10;57.96;98920.81;5011596;28;20049;-74
2023/07/29 08:26:01;;;;;;;2.45;1.00;;;;;;;23.09;57.86;98930.72;5011179;28;20088;-74
2023/07/29 08:28:29;;;;;;;1.30;1.20;;;;;;;23.12;57.77;98929.50;5011722;28;20566;-75
2023/07/29 08:30:55;;;;;;;1.15;1.05;;;;;;;23.15;57.67;98931.81;5011481;28;20053;-75
2023/07/29 08:33:22;;;;;;;1.00;1.00;;;;;;;23.16;58.16;98925.41;5011457;28;20046;-74
2023/07/29 08:35:49;;;;;;;1.30;1.20;;;;;;;23.19;58.32;98916.97;5011220;28;20136;-74
2023/07/29 08:38:15;;;;;;;0.95;0.95;;;;;;;23.24;58.25;98927.97;5011066;28;20133;-75
2023/07/29 08:40:48;;;;;;;1.58;1.25;;;;;;;23.29;57.96;98932.78;5011628;28;20050;-74
2023/07/29 08:43:18;;;;;;;4.35;1.33;;;;;;;23.37;57.64;98931.84;4993815;28;20457;-74
2023/07/29 08:45:45;;;;;;;1.50;1.27;;;;;;;23.45;57.63;98922.81;5011022;28;20069;-74
2023/07/29 08:48:15;;;;;;;3.65;1.10;;;;;;;23.51;58.18;98920.19;5011384;28;20050;-75
2023/07/29 08:50:44;;;;;;;1.50;1.20;;;;;;;23.56;57.74;98927.69;5011129;28;20057;-74
2023/07/29 08:53:10;;;;;;;1.20;1.10;;;;;;;23.62;58.22;98923.41;5011419;28;20050;-75
2023/07/29 08:55:38;;;;;;;1.83;1.33;;;;;;;23.68;57.86;98922.59;5011181;28;20119;-75
2023/07/29 08:58:05;;;;;;;1.30;1.20;;;;;;;23.75;57.86;98925.34;5011023;28;20054;-75
2023/07/29 09:00:32;;;;;;;1.48;1.30;;;;;;;23.81;57.30;98932.66;5011148;28;20049;-74
2023/07/29 09:03:04;;;;;;;4.40;1.60;;;;;;;23.85;56.68;98922.34;5010277;28;20074;-75
2023/07/29 09:05:32;;;;;;;3.50;1.70;;;;;;;23.86;56.94;98930.22;5010362;28;20054;-75
2023/07/29 09:07:59;;;;;;;2.95;1.70;;;;;;;23.87;56.53;98923.78;5010498;28;20057;-75
2023/07/29 09:10:26;;;;;;;2.58;1.60;;;;;;;23.88;57.14;98930.00;5010940;28;20050;-75
2023/07/29 09:12:53;;;;;;;1.85;1.70;;;;;;;23.90;57.32;98922.56;5010894;28;20121;-74
2023/07/29 09:15:28;;;;;;;2.95;1.50;;;;;;;23.92;56.74;98920.53;5012126;28;20534;-75
2023/07/29 09:17:56;;;;;;;1.75;1.65;;;;;;;24.00;57.20;98920.34;5014452;28;20057;-74
2023/07/29 09:20:27;;;;;;;6.75;1.70;;;;;;;24.05;57.38;98927.84;5014807;28;20754;-74
2023/07/29 09:22:55;;;;;;;1.60;1.33;;;;;;;24.10;56.92;98928.13;5014700;28;20049;-74
2023/07/29 09:25:26;;;;;;;3.83;2.03;;;;;;;24.16;56.36;98932.72;5014455;28;20108;-75
2023/07/29 09:27:59;;;;;;;1.83;1.42;;;;;;;24.23;56.26;98922.00;4996985;28;20053;-74
2023/07/29 09:30:27;;;;;;;2.03;1.63;;;;;;;24.34;56.89;98923.31;5014431;28;20081;-74
2023/07/29 09:32:58;;;;;;;1.75;1.40;;;;;;;24.41;55.85;98916.09;5014366;28;20469;-75
2023/07/29 09:35:30;;;;;;;1.73;1.50;;;;;;;24.51;55.25;98923.78;4996690;28;20050;-74
2023/07/29 09:37:57;;;;;;;2.03;1.45;;;;;;;24.61;56.08;98915.38;5014147;28;20479;-74
2023/07/29 09:40:23;;;;;;;1.75;1.52;;;;;;;24.67;55.66;98921.81;5014323;28;20112;-74
2023/07/29 09:42:52;;;;;;;1.90;1.50;;;;;;;24.69;55.23;98927.81;5013711;28;20443;-75
2023/07/29 09:45:26;;;;;;;1.60;1.42;;;;;;;24.68;54.73;98921.63;5014051;28;20050;-74
2023/07/29 09:47:54;;;;;;;1.45;1.20;;;;;;;24.71;54.81;98923.06;5014153;28;20056;-74
2023/07/29 09:50:24;;;;;;;2.60;1.40;;;;;;;24.71;54.18;98931.16;4996851;28;20086;-74
2023/07/29 09:52:52;;;;;;;3.58;1.50;;;;;;;24.74;54.76;98933.41;5013918;28;20056;-74
2023/07/29 09:55:22;;;;;;;3.13;1.40;;;;;;;24.74;54.46;98930.72;4980566;28;20049;-74
2023/07/29 09:57:53;;;;;;;1.60;1.35;;;;;;;24.75;53.81;98929.72;5013964;28;20046;-74
2023/07/29 10:00:20;;;;;;;2.25;1.55;;;;;;;24.80;54.69;98926.41;5014228;28;20053;-74
2023/07/29 10:02:47;;;;;;;1.38;1.20;;;;;;;24.81;54.32;98931.59;5013568;28;20046;-74
2023/07/29 10:05:14;;;;;;;1.23;1.00;;;;;;;24.84;54.48;98936.59;4996222;28;20518;-75
2023/07/29 10:07:41;;;;;;;1.55;1.20;;;;;;;24.89;54.82;98921.72;4996251;28;20056;-75
2023/07/29 10:10:08;;;;;;;2.13;1.23;;;;;;;24.94;54.65;98924.63;5014244;28;20062;-74
2023/07/29 10:12:35;;;;;;;1.48;1.38;;;;;;;25.00;54.38;98923.81;4996192;28;20449;-76
2023/07/29 10:15:04;;;;;;;2.05;1.33;;;;;;;25.06;53.81;98927.56;5013706;28;20096;-74
2023/07/29 10:17:36;;;;;;;1.40;1.30;;;;;;;25.11;53.06;98925.91;4996071;28;20050;-74
2023/07/29 10:20:04;;;;;;;1.20;1.10;;;;;;;25.17;53.44;98940.44;5013757;28;20050;-74
2023/07/29 10:22:51;;;;;;;1.52;1.20;;;;;;;25.20;53.76;98942.69;5013156;28;20062;-75
2023/07/29 10:25:22;;;;;;;1.42;0.93;;;;;;;25.30;53.61;98936.09;5013577;28;20160;-75
2023/07/29 10:28:11;;;;;;;1.45;1.10;;;;;;;25.32;53.13;98942.94;5012864;28;20058;-75
2023/07/29 10:30:39;;;;;;;1.92;1.10;;;;;;;25.41;53.00;98929.28;5013435;28;20092;-74
2023/07/29 10:33:06;;;;;;;1.67;1.15;;;;;;;25.46;52.70;98933.00;5012903;28;20050;-76
2023/07/29 10:35:34;;;;;;;1.42;0.93;;;;;;;25.52;53.05;98941.31;5012898;28;20050;-75
2023/07/29 10:38:02;;;;;;;0.98;0.98;;;;;;;25.60;52.86;98936.56;5013046;28;20045;-74
2023/07/29 10:40:59;;;;;;;1.50;0.95;;;;;;;25.69;52.17;98941.75;5012646;28;20080;-74
2023/07/29 10:43:29;;;;;;;1.88;1.13;;;;;;;25.84;52.32;98937.00;5012101;28;20084;-74
2023/07/29 10:45:56;;;;;;;1.55;1.00;;;;;;;25.93;52.38;98937.59;4995031;28;20061;-74
2023/07/29 10:48:42;;;;;;;1.73;0.90;;;;;;;26.02;52.06;98943.63;4997654;28;20138;-74
2023/07/29 10:51:35;;;;;;;1.20;1.00;;;;;;;26.06;51.57;98935.94;5012666;28;20072;-74
2023/07/29 10:54:04;;;;;;;1.67;1.10;;;;;;;26.22;51.91;98940.88;5012107;28;20053;-75
2023/07/29 10:56:35;;;;;;;1.33;0.90;;;;;;;26.37;51.86;98932.59;5012033;28;20056;-75
2023/07/29 10:59:30;;;;;;;1.27;0.90;;;;;;;26.54;52.01;98932.94;5012136;28;20056;-74
2023/07/29 11:01:58;;;;;;;1.55;1.02;;;;;;;26.78;50.77;98927.88;5004159;28;20049;-75
2023/07/29 11:04:33;;;;;;;0.82;0.82;;;;;;;26.89;49.39;98929.06;5011692;28;20108;-74
2023/07/29 11:07:03;;;;;;;0.80;0.80;;;;;;;26.97;48.93;98935.28;5011601;28;20169;-74
2023/07/29 11:09:41;;;;;;;2.90;1.20;;;;;;;26.93;48.69;98924.91;5011922;28;20483;-74
2023/07/29 11:12:36;;;;;;;1.10;1.00;;;;;;;26.86;48.86;98929.50;5012291;28;20257;-74
2023/07/29 11:15:13;;;;;;;1.55;0.80;;;;;;;26.83;49.31;98929.09;4975079;28;20058;-74
2023/07/29 11:17:45;;;;;;;0.77;0.77;;;;;;;26.82;49.99;98928.25;4992150;28;20499;-74
2023/07/29 11:20:12;;;;;;;;;;;;;;;26.82;51.41;98927.44;4992650;28;20077;-74
2023/07/29 11:22:40;;;;;;;0.88;0.82;;;;;;;26.99;50.59;98925.09;4992045;28;19928;-74
2023/07/29 11:25:09;;;;;;;1.23;1.10;;;;;;;27.19;50.95;98923.13;5010795;28;20081;-74
2023/07/29 11:27:36;;;;;;;2.40;1.40;;;;;;;27.49;50.42;98918.13;5011623;28;20116;-74
2023/07/29 11:30:05;;;;;;;1.30;1.08;;;;;;;27.81;50.46;98913.50;5011737;28;20061;-75
2023/07/29 11:32:33;;;;;;;1.40;1.02;;;;;;;28.18;50.61;98920.03;5011680;28;20092;-74
2023/07/29 11:35:10;;;;;;;1.23;1.10;;;;;;;28.50;49.05;98919.91;5011023;28;20502;-75
2023/07/29 11:37:38;;;;;;;1.30;0.90;;;;;;;28.79;47.57;98916.66;4993752;28;20628;-75
2023/07/29 11:40:06;;;;;;;0.90;0.90;;;;;;;28.98;47.39;98917.47;5010833;28;20045;-74